createdAt,value
2023-03-16T00:00:50.158Z,1.19
2023-03-16T00:03:22.624Z,1.23
2023-03-16T00:05:54.777Z,1.13
2023-03-16T00:08:27.239Z,1.24
2023-03-16T00:10:59.002Z,1.22
2023-03-16T00:13:31.050Z,1.39
2023-03-16T00:16:03.985Z,1.31
2023-03-16T00:18:35.611Z,1.24
2023-03-16T00:21:07.227Z,1.24
2023-03-16T00:23:38.851Z,1.12
2023-03-16T00:26:10.508Z,1.31
2023-03-16T00:28:42.059Z,1.39
2023-03-16T00:31:14.984Z,1.54
2023-03-16T00:33:46.871Z,1.66
2023-03-16T00:36:18.479Z,1.88
2023-03-16T00:38:50.043Z,1.96
2023-03-16T00:41:21.937Z,1.87
2023-03-16T00:43:53.628Z,1.89
2023-03-16T00:46:25.211Z,1.80
2023-03-16T00:48:56.837Z,1.86
2023-03-16T00:51:28.523Z,2.10
2023-03-16T00:54:00.108Z,1.94
2023-03-16T00:56:31.668Z,2.00
2023-03-16T00:59:03.309Z,1.96
2023-03-16T01:01:35.002Z,1.86
2023-03-16T01:04:06.660Z,1.83
2023-03-16T01:06:39.913Z,1.79
2023-03-16T01:09:11.935Z,1.62
2023-03-16T01:11:43.503Z,1.66
2023-03-16T01:14:15.083Z,1.49
2023-03-16T01:16:47.062Z,1.58
2023-03-16T01:19:18.699Z,1.57
2023-03-16T01:21:50.287Z,1.32
2023-03-16T01:24:22.134Z,1.57
2023-03-16T01:26:54.000Z,1.49
2023-03-16T01:29:25.893Z,1.65
2023-03-16T01:32:00.046Z,1.46
2023-03-16T01:34:32.479Z,1.46
2023-03-16T01:37:04.634Z,1.27
2023-03-16T01:39:56.447Z,1.53
2023-03-16T01:42:28.190Z,1.14
2023-03-16T01:45:01.159Z,1.20
2023-03-16T01:47:37.576Z,1.29
2023-03-16T01:50:10.894Z,1.22
2023-03-16T01:52:45.221Z,1.23
2023-03-16T01:55:18.592Z,1.32
2023-03-16T01:57:50.286Z,1.32
2023-03-16T02:00:22.186Z,1.38
2023-03-16T02:03:16.579Z,1.30
2023-03-16T02:06:12.642Z,1.36
2023-03-16T02:08:50.565Z,1.40
2023-03-16T02:11:23.423Z,1.40
2023-03-16T02:14:12.001Z,1.47
2023-03-16T02:16:43.711Z,1.28
2023-03-16T02:19:29.353Z,1.56
2023-03-16T02:22:05.788Z,1.70
2023-03-16T02:24:38.467Z,1.59
2023-03-16T02:27:25.893Z,1.56
2023-03-16T02:30:08.120Z,1.24
2023-03-16T02:32:50.560Z,1.32
2023-03-16T02:35:22.815Z,1.36
2023-03-16T02:37:55.330Z,1.27
2023-03-16T02:40:32.355Z,1.41
2023-03-16T02:43:18.537Z,1.30
2023-03-16T02:46:02.540Z,1.35
2023-03-16T02:49:09.969Z,1.44
2023-03-16T02:51:45.332Z,1.47
2023-03-16T02:54:17.577Z,1.35
2023-03-16T02:56:49.193Z,1.31
2023-03-16T02:59:21.481Z,1.41
2023-03-16T03:01:53.452Z,1.53
2023-03-16T03:04:25.120Z,1.54
2023-03-16T03:06:56.680Z,1.63
2023-03-16T03:09:28.322Z,1.57
2023-03-16T03:12:00.317Z,1.47
2023-03-16T03:14:31.913Z,1.59
2023-03-16T03:17:07.895Z,1.53
2023-03-16T03:19:39.545Z,1.62
2023-03-16T03:22:11.296Z,1.78
2023-03-16T03:24:43.066Z,1.90
2023-03-16T03:27:14.808Z,1.68
2023-03-16T03:29:47.463Z,1.51
2023-03-16T03:32:19.134Z,1.72
2023-03-16T03:34:51.271Z,1.52
2023-03-16T03:37:22.875Z,1.45
2023-03-16T03:39:54.634Z,1.50
2023-03-16T03:42:26.448Z,1.58
2023-03-16T03:44:58.206Z,1.71
2023-03-16T03:47:30.907Z,1.62
2023-03-16T03:50:03.481Z,1.61
2023-03-16T03:52:38.235Z,1.71
2023-03-16T03:55:10.770Z,1.63
2023-03-16T03:57:42.387Z,1.65
2023-03-16T04:00:14.420Z,1.54
2023-03-16T04:02:48.090Z,1.70
2023-03-16T04:05:29.703Z,1.79
2023-03-16T04:08:01.365Z,1.73
2023-03-16T04:10:33.177Z,1.67
2023-03-16T04:13:05.359Z,1.74
2023-03-16T04:15:38.583Z,1.85
2023-03-16T04:18:15.796Z,1.84
2023-03-16T04:20:48.394Z,1.85
2023-03-16T04:23:23.440Z,1.87
2023-03-16T04:25:55.655Z,1.78
2023-03-16T04:28:27.859Z,1.89
2023-03-16T04:31:05.213Z,2.00
2023-03-16T04:33:41.002Z,1.74
2023-03-16T04:36:12.698Z,1.88
2023-03-16T04:38:45.100Z,1.87
2023-03-16T04:41:18.392Z,1.99
2023-03-16T04:43:59.007Z,2.06
2023-03-16T04:46:30.886Z,1.96
2023-03-16T04:49:06.152Z,1.83
2023-03-16T04:51:37.995Z,2.11
2023-03-16T04:54:13.230Z,1.95
2023-03-16T04:56:47.643Z,2.01
2023-03-16T04:59:32.401Z,2.12
2023-03-16T05:02:18.682Z,2.04
2023-03-16T05:04:50.395Z,1.92
2023-03-16T05:07:22.660Z,2.15
2023-03-16T05:09:58.101Z,2.14
2023-03-16T05:12:29.898Z,2.14
2023-03-16T05:15:06.872Z,2.21
2023-03-16T05:17:44.528Z,2.17
2023-03-16T05:20:18.271Z,2.05
2023-03-16T05:22:55.609Z,2.13
2023-03-16T05:25:39.002Z,2.11
2023-03-16T05:28:12.014Z,2.23
2023-03-16T05:30:51.951Z,2.19
2023-03-16T05:33:29.341Z,2.27
2023-03-16T05:36:07.888Z,2.35
2023-03-16T05:38:41.025Z,2.54
2023-03-16T05:41:15.604Z,2.25
2023-03-16T05:44:04.841Z,2.31
2023-03-16T05:46:51.191Z,2.56
2023-03-16T05:49:22.839Z,2.33
2023-03-16T05:51:54.906Z,2.50
2023-03-16T05:54:27.182Z,2.33
2023-03-16T05:56:58.965Z,2.33
2023-03-16T05:59:31.560Z,2.52
2023-03-16T06:02:03.571Z,2.23
2023-03-16T06:04:36.209Z,2.35
2023-03-16T06:07:08.148Z,2.61
2023-03-16T06:09:39.757Z,2.82
2023-03-16T06:12:16.797Z,2.34
2023-03-16T06:14:49.044Z,2.47
2023-03-16T06:17:20.760Z,2.54
2023-03-16T06:19:52.648Z,2.55
2023-03-16T06:22:24.435Z,2.71
2023-03-16T06:24:56.154Z,2.61
2023-03-16T06:27:27.947Z,2.39
2023-03-16T06:30:14.897Z,2.34
2023-03-16T06:32:46.835Z,2.51
2023-03-16T06:35:19.572Z,2.39
2023-03-16T06:38:04.462Z,2.46
2023-03-16T06:40:54.726Z,2.41
2023-03-16T06:43:27.912Z,2.61
2023-03-16T06:45:59.977Z,2.56
2023-03-16T06:48:31.852Z,2.59
2023-03-16T06:51:03.797Z,2.53
2023-03-16T06:53:35.980Z,2.50
2023-03-16T06:56:07.863Z,2.39
2023-03-16T06:58:44.325Z,2.29
2023-03-16T07:01:16.072Z,2.36
2023-03-16T07:03:47.825Z,2.41
2023-03-16T07:06:25.057Z,2.60
2023-03-16T07:08:56.668Z,2.34
2023-03-16T07:11:29.077Z,2.59
2023-03-16T07:14:03.190Z,2.56
2023-03-16T07:16:36.924Z,2.58
2023-03-16T07:19:11.285Z,2.65
2023-03-16T07:21:42.944Z,2.69
2023-03-16T07:24:19.691Z,2.51
2023-03-16T07:26:51.319Z,2.67
2023-03-16T07:29:33.086Z,2.82
2023-03-16T07:32:07.655Z,2.88
2023-03-16T07:34:42.914Z,2.72
2023-03-16T07:37:17.136Z,2.66
2023-03-16T07:39:50.318Z,2.92
2023-03-16T07:42:23.675Z,2.77
2023-03-16T07:45:09.827Z,2.63
2023-03-16T07:47:41.648Z,2.49
2023-03-16T07:50:39.144Z,2.46
2023-03-16T07:53:12.311Z,2.72
2023-03-16T07:55:46.608Z,2.49
2023-03-16T07:58:18.519Z,2.49
2023-03-16T08:00:51.849Z,2.38
2023-03-16T08:03:25.613Z,2.48
2023-03-16T08:05:59.404Z,2.62
2023-03-16T08:08:32.321Z,2.50
2023-03-16T08:11:04.087Z,2.62
2023-03-16T08:13:46.921Z,2.48
2023-03-16T08:16:21.947Z,2.69
2023-03-16T08:18:57.980Z,2.67
2023-03-16T08:21:29.887Z,2.65
2023-03-16T08:24:01.548Z,2.51
2023-03-16T08:26:33.695Z,2.77
2023-03-16T08:29:05.500Z,2.65
2023-03-16T08:31:41.096Z,2.82
2023-03-16T08:34:19.349Z,2.69
2023-03-16T08:36:50.992Z,2.91
2023-03-16T08:39:22.707Z,2.77
2023-03-16T08:41:54.914Z,2.50
2023-03-16T08:44:33.917Z,2.41
2023-03-16T08:47:05.766Z,2.23
2023-03-16T08:49:39.540Z,2.11
2023-03-16T08:52:16.507Z,2.15
2023-03-16T08:55:01.903Z,2.43
2023-03-16T08:57:34.774Z,2.57
2023-03-16T09:00:08.840Z,2.51
2023-03-16T09:02:42.514Z,2.64
2023-03-16T09:05:16.263Z,2.43
2023-03-16T09:07:49.012Z,2.27
2023-03-16T09:10:21.653Z,2.40
2023-03-16T09:12:53.884Z,2.54
2023-03-16T09:15:25.439Z,2.36
2023-03-16T09:17:57.048Z,2.43
2023-03-16T09:20:30.173Z,2.23
2023-03-16T09:23:01.956Z,2.47
2023-03-16T09:25:33.577Z,2.10
2023-03-16T09:28:05.887Z,1.98
2023-03-16T09:30:37.537Z,1.67
2023-03-16T09:33:09.288Z,1.64
2023-03-16T09:35:40.961Z,1.91
2023-03-16T09:38:12.563Z,1.49
2023-03-16T09:40:47.722Z,1.80
2023-03-16T09:43:45.358Z,1.91
2023-03-16T09:46:36.295Z,1.88
2023-03-16T09:49:15.352Z,1.85
2023-03-16T09:52:12.428Z,2.16
2023-03-16T09:55:11.881Z,1.92
2023-03-16T09:57:45.831Z,1.86
2023-03-16T10:00:28.405Z,1.78
2023-03-16T10:03:28.244Z,1.80
2023-03-16T10:06:03.152Z,1.68
2023-03-16T10:08:51.175Z,1.72
2023-03-16T10:11:38.068Z,1.64
2023-03-16T10:14:09.633Z,1.56
2023-03-16T10:16:49.768Z,1.56
2023-03-16T10:19:49.567Z,1.66
2023-03-16T10:22:37.239Z,1.79
2023-03-16T10:25:27.277Z,1.76
2023-03-16T10:27:59.119Z,1.39
2023-03-16T10:30:36.651Z,1.42
2023-03-16T10:33:29.683Z,1.89
2023-03-16T10:36:25.611Z,2.27
2023-03-16T10:39:01.770Z,2.13
2023-03-16T10:41:36.506Z,2.11
2023-03-16T10:44:11.220Z,1.93
2023-03-16T10:46:58.430Z,1.98
2023-03-16T10:49:38.646Z,2.27
2023-03-16T10:52:34.857Z,2.30
2023-03-16T10:55:27.250Z,2.30
2023-03-16T10:57:59.120Z,2.73
2023-03-16T11:00:37.426Z,2.41
2023-03-16T11:03:30.359Z,2.38
2023-03-16T11:06:05.643Z,2.56
2023-03-16T11:08:39.174Z,2.74
2023-03-16T11:11:17.112Z,2.53
2023-03-16T11:13:49.243Z,2.80
2023-03-16T11:16:27.940Z,2.80
2023-03-16T11:19:25.713Z,2.74
2023-03-16T11:22:05.635Z,2.71
2023-03-16T11:24:46.388Z,2.64
2023-03-16T11:27:33.622Z,2.82
2023-03-16T11:30:26.757Z,2.70
2023-03-16T11:32:58.549Z,2.51
2023-03-16T11:35:38.433Z,2.82
2023-03-16T11:38:37.521Z,2.76
2023-03-16T11:41:13.342Z,2.57
2023-03-16T11:44:00.293Z,2.71
2023-03-16T11:46:42.279Z,2.78
2023-03-16T11:49:51.554Z,2.41
2023-03-16T11:52:39.932Z,2.79
2023-03-16T11:55:34.012Z,2.82
2023-03-16T11:58:30.978Z,2.46
2023-03-16T12:01:17.542Z,2.44
2023-03-16T12:04:12.274Z,2.49
2023-03-16T12:06:55.299Z,2.88
2023-03-16T12:10:05.544Z,2.89
2023-03-16T12:12:55.617Z,3.05
2023-03-16T12:16:46.283Z,3.33
2023-03-16T12:19:45.624Z,2.74
2023-03-16T12:22:20.829Z,3.06
2023-03-16T12:24:52.835Z,2.72
2023-03-16T12:27:31.672Z,2.87
2023-03-16T12:30:40.412Z,2.88
2023-03-16T12:33:33.430Z,2.91
2023-03-16T12:36:23.225Z,2.97
2023-03-16T12:39:07.122Z,2.53
2023-03-16T12:41:56.161Z,2.82
2023-03-16T12:44:56.790Z,2.65
2023-03-16T12:47:32.430Z,2.80
2023-03-16T12:50:11.344Z,2.72
2023-03-16T12:52:46.821Z,2.94
2023-03-16T12:55:20.675Z,2.93
2023-03-16T12:58:04.939Z,2.69
2023-03-16T13:00:40.335Z,2.81
2023-03-16T13:03:19.895Z,2.78
2023-03-16T13:05:56.034Z,2.44
2023-03-16T13:08:28.489Z,2.54
2023-03-16T13:11:11.890Z,2.49
2023-03-16T13:14:03.726Z,2.43
2023-03-16T13:16:37.358Z,2.60
2023-03-16T13:19:27.556Z,2.33
2023-03-16T13:22:24.153Z,2.73
2023-03-16T13:25:13.758Z,2.71
2023-03-16T13:27:53.503Z,2.89
2023-03-16T13:30:34.430Z,3.03
2023-03-16T13:33:19.659Z,2.72
2023-03-16T13:35:53.808Z,2.74
2023-03-16T13:38:27.882Z,2.79
2023-03-16T13:41:09.158Z,3.20
2023-03-16T13:43:44.174Z,3.32
2023-03-16T13:46:16.828Z,3.32
2023-03-16T13:48:49.240Z,3.32
2023-03-16T13:51:21.882Z,3.43
2023-03-16T13:53:53.681Z,3.14
2023-03-16T13:56:27.378Z,2.56
2023-03-16T13:58:59.496Z,2.68
2023-03-16T14:01:32.020Z,2.31
2023-03-16T14:04:11.576Z,2.45
2023-03-16T14:06:59.304Z,2.61
2023-03-16T14:09:35.162Z,2.60
2023-03-16T14:12:07.027Z,2.73
2023-03-16T14:14:40.259Z,2.56
2023-03-16T14:17:16.118Z,2.46
2023-03-16T14:20:00.728Z,2.34
2023-03-16T14:22:36.880Z,2.38
2023-03-16T14:25:20.478Z,2.33
2023-03-16T14:27:59.599Z,2.58
2023-03-16T14:30:31.548Z,2.68
2023-03-16T14:33:27.955Z,2.62
2023-03-16T14:36:11.373Z,2.53
2023-03-16T14:38:48.464Z,2.56
2023-03-16T14:41:30.741Z,2.74
2023-03-16T14:44:02.578Z,2.57
2023-03-16T14:46:39.216Z,2.53
2023-03-16T14:49:22.883Z,2.67
2023-03-16T14:52:02.728Z,2.61
2023-03-16T14:54:34.662Z,2.44
2023-03-16T14:57:06.810Z,1.93
2023-03-16T14:59:38.673Z,1.88
2023-03-16T15:02:23.044Z,2.36
2023-03-16T15:04:57.069Z,2.47
2023-03-16T15:07:32.723Z,2.83
2023-03-16T15:10:22.350Z,2.61
2023-03-16T15:12:54.024Z,2.61
2023-03-16T15:15:25.731Z,2.66
2023-03-16T15:17:57.360Z,1.74
2023-03-16T15:20:34.577Z,1.43
2023-03-16T15:23:06.268Z,1.54
2023-03-16T15:25:41.250Z,1.52
2023-03-16T15:28:24.720Z,1.83
2023-03-16T15:30:58.687Z,1.99
2023-03-16T15:33:31.072Z,2.11
2023-03-16T15:36:14.580Z,2.07
2023-03-16T15:38:49.214Z,2.12
2023-03-16T15:41:22.603Z,2.17
2023-03-16T15:43:54.241Z,2.23
2023-03-16T15:46:26.356Z,1.90
2023-03-16T15:48:57.996Z,2.13
2023-03-16T15:51:31.154Z,2.23
2023-03-16T15:54:06.635Z,1.96
2023-03-16T15:56:53.297Z,2.02
2023-03-16T15:59:31.413Z,1.70
2023-03-16T16:02:03.396Z,1.75
2023-03-16T16:04:35.034Z,1.86
2023-03-16T16:07:11.253Z,1.71
2023-03-16T16:09:42.927Z,1.75
2023-03-16T16:12:16.419Z,1.72
2023-03-16T16:14:48.084Z,2.04
2023-03-16T16:17:21.156Z,1.97
2023-03-16T16:19:54.690Z,2.08
2023-03-16T16:22:26.332Z,1.91
2023-03-16T16:24:57.899Z,1.99
2023-03-16T16:27:29.574Z,2.05
2023-03-16T16:30:01.194Z,2.32
2023-03-16T16:32:32.891Z,2.52
2023-03-16T16:35:13.412Z,2.76
2023-03-16T16:37:45.467Z,3.15
2023-03-16T16:40:23.452Z,3.15
2023-03-16T16:42:55.227Z,3.09
2023-03-16T16:45:27.653Z,3.17
2023-03-16T16:47:59.492Z,3.31
2023-03-16T16:50:31.065Z,3.35
2023-03-16T16:53:16.192Z,3.24
2023-03-16T16:55:47.922Z,3.18
2023-03-16T16:58:24.617Z,3.38
2023-03-16T17:00:58.320Z,3.35
2023-03-16T17:03:30.430Z,3.30
2023-03-16T17:06:02.355Z,3.30
2023-03-16T17:08:34.098Z,3.02
2023-03-16T17:11:05.890Z,3.20
2023-03-16T17:13:40.465Z,3.22
2023-03-16T17:16:16.777Z,3.35
2023-03-16T17:18:49.528Z,3.16
2023-03-16T17:21:24.186Z,2.97
2023-03-16T17:23:56.216Z,3.07
2023-03-16T17:26:39.816Z,2.90
2023-03-16T17:29:22.078Z,3.07
2023-03-16T17:31:54.072Z,2.91
2023-03-16T17:34:29.062Z,2.47
2023-03-16T17:37:00.697Z,2.55
2023-03-16T17:39:33.679Z,2.85
2023-03-16T17:42:11.741Z,3.27
2023-03-16T17:44:47.199Z,2.92
2023-03-16T17:47:23.495Z,3.00
2023-03-16T17:49:55.369Z,2.74
2023-03-16T17:52:29.307Z,2.87
2023-03-16T17:55:00.970Z,2.72
2023-03-16T17:57:33.918Z,2.80
2023-03-16T18:00:20.523Z,3.15
2023-03-16T18:03:12.342Z,3.08
2023-03-16T18:05:45.205Z,3.36
2023-03-16T18:08:22.386Z,3.70
2023-03-16T18:11:00.910Z,3.76
2023-03-16T18:13:36.472Z,3.69
2023-03-16T18:16:12.886Z,3.49
2023-03-16T18:18:44.634Z,3.66
2023-03-16T18:21:22.183Z,3.45
2023-03-16T18:23:54.163Z,3.66
2023-03-16T18:26:25.884Z,3.60
2023-03-16T18:28:57.503Z,3.58
2023-03-16T18:31:29.645Z,3.49
2023-03-16T18:34:05.738Z,3.51
2023-03-16T18:36:38.073Z,3.68
2023-03-16T18:39:19.323Z,4.02
2023-03-16T18:41:50.985Z,3.40
2023-03-16T18:44:25.172Z,3.84
2023-03-16T18:47:02.631Z,4.19
2023-03-16T18:49:36.638Z,4.42
2023-03-16T18:52:19.520Z,4.04
2023-03-16T18:54:51.872Z,3.84
2023-03-16T18:57:27.236Z,3.98
2023-03-16T18:59:58.845Z,3.93
2023-03-16T19:02:38.928Z,3.88
2023-03-16T19:05:20.710Z,4.06
2023-03-16T19:07:52.989Z,4.51
2023-03-16T19:10:34.671Z,4.45
2023-03-16T19:13:16.260Z,4.57
2023-03-16T19:15:49.691Z,5.49
2023-03-16T19:18:21.340Z,5.83
2023-03-16T19:20:55.112Z,5.42
2023-03-16T19:23:35.135Z,5.64
2023-03-16T19:26:07.835Z,4.83
2023-03-16T19:28:43.757Z,5.08
2023-03-16T19:31:26.641Z,5.03
2023-03-16T19:33:58.565Z,4.57
2023-03-16T19:36:32.324Z,4.73
2023-03-16T19:39:04.273Z,4.92
2023-03-16T19:41:38.061Z,4.78
2023-03-16T19:44:26.762Z,4.82
2023-03-16T19:46:58.625Z,4.89
2023-03-16T19:49:30.709Z,5.26
2023-03-16T19:52:02.544Z,5.45
2023-03-16T19:54:34.253Z,5.62
2023-03-16T19:57:16.837Z,5.83
2023-03-16T19:59:55.148Z,6.04
2023-03-16T20:02:35.489Z,6.33
2023-03-16T20:05:07.839Z,6.00
2023-03-16T20:07:39.678Z,6.06
2023-03-16T20:10:22.047Z,5.92
2023-03-16T20:13:00.194Z,5.80
2023-03-16T20:15:33.466Z,5.41
2023-03-16T20:18:12.411Z,5.67
2023-03-16T20:20:44.549Z,5.56
2023-03-16T20:23:29.007Z,5.10
2023-03-16T20:26:02.652Z,5.27
2023-03-16T20:28:37.059Z,5.33
2023-03-16T20:31:18.720Z,5.59
2023-03-16T20:33:52.482Z,5.66
2023-03-16T20:36:26.162Z,5.60
2023-03-16T20:38:58.133Z,5.16
2023-03-16T20:41:31.518Z,5.05
2023-03-16T20:44:03.550Z,5.12
2023-03-16T20:46:35.590Z,5.16
2023-03-16T20:49:36.480Z,4.84
2023-03-16T20:52:28.253Z,5.18
2023-03-16T20:55:01.213Z,5.06
2023-03-16T20:57:33.090Z,4.88
2023-03-16T21:00:17.641Z,4.84
2023-03-16T21:02:49.350Z,5.01
2023-03-16T21:05:22.041Z,4.91
2023-03-16T21:07:54.167Z,4.92
2023-03-16T21:10:25.854Z,5.38
2023-03-16T21:12:57.811Z,5.66
2023-03-16T21:15:31.825Z,5.42
2023-03-16T21:18:06.691Z,5.50
2023-03-16T21:20:38.383Z,5.83
2023-03-16T21:23:15.070Z,5.84
2023-03-16T21:25:56.555Z,5.58
2023-03-16T21:28:32.990Z,6.28
2023-03-16T21:31:05.222Z,6.47
2023-03-16T21:33:40.349Z,6.21
2023-03-16T21:36:21.940Z,6.44
2023-03-16T21:38:55.021Z,6.12
2023-03-16T21:41:26.600Z,6.38
2023-03-16T21:43:58.187Z,6.19
2023-03-16T21:46:30.143Z,6.66
2023-03-16T21:49:03.660Z,6.58
2023-03-16T21:51:36.327Z,6.08
2023-03-16T21:54:13.269Z,6.31
2023-03-16T21:56:46.126Z,6.21
2023-03-16T21:59:17.712Z,5.92
2023-03-16T22:02:01.161Z,6.13
2023-03-16T22:04:33.817Z,6.13
2023-03-16T22:07:11.086Z,6.08
2023-03-16T22:09:43.574Z,6.16
2023-03-16T22:12:15.433Z,6.20
2023-03-16T22:14:46.980Z,5.92
2023-03-16T22:17:22.519Z,6.21
2023-03-16T22:19:54.163Z,6.33
2023-03-16T22:22:33.451Z,6.54
2023-03-16T22:25:14.864Z,6.98
2023-03-16T22:27:46.525Z,7.12
2023-03-16T22:30:25.698Z,6.31
2023-03-16T22:33:00.584Z,6.25
2023-03-16T22:35:38.709Z,6.17
2023-03-16T22:38:14.334Z,6.49
2023-03-16T22:40:45.912Z,6.21
2023-03-16T22:43:22.558Z,5.99
2023-03-16T22:45:54.132Z,6.14
2023-03-16T22:48:28.751Z,5.81
2023-03-16T22:51:04.346Z,5.97
2023-03-16T22:53:41.226Z,6.01
2023-03-16T22:56:12.965Z,6.08
2023-03-16T22:59:01.983Z,5.39
2023-03-16T23:01:39.942Z,5.76
2023-03-16T23:04:17.362Z,5.33
2023-03-16T23:06:52.371Z,5.56
2023-03-16T23:09:25.267Z,5.59
2023-03-16T23:11:57.332Z,5.61
2023-03-16T23:14:34.666Z,5.82
2023-03-16T23:17:24.867Z,5.10
2023-03-16T23:19:56.512Z,5.23
2023-03-16T23:22:28.252Z,5.79
2023-03-16T23:25:00.205Z,6.11
2023-03-16T23:27:31.973Z,5.25
2023-03-16T23:30:18.747Z,5.75
2023-03-16T23:32:53.248Z,5.57
2023-03-16T23:35:28.259Z,5.31
2023-03-16T23:38:00.426Z,5.36
2023-03-16T23:40:36.868Z,5.64
2023-03-16T23:43:09.008Z,5.40
2023-03-16T23:45:44.989Z,5.36
2023-03-16T23:48:20.572Z,5.53
2023-03-16T23:50:55.553Z,6.15
2023-03-16T23:53:27.232Z,6.33
2023-03-16T23:55:59.125Z,6.27
2023-03-16T23:58:31.241Z,6.08
